Modlin Airport Warsaw PL
ICAO: EPMO
IATA: WMI
Category: Large
Scheduled Services: No

Elevation: 341 ft
TransAlt. 18000 ft.

Airport Communications:
INFO:124.5

EPMO Zoom In..

If you have problems with the map follow the link
https://www.worldairports.se/pages/airport.php?
ICAO=EPMO

Runways:

(A) RW 08 length 8202 ft width 148 ft
---- / hdg 77

(B) RW 26 length 8202 ft width 148 ft
---- / hdg 257

Location; EPMO
Day. 05 / Time. 14.30 Zulu
* QNH: 1019
* Temperature: 02° c. 35.6°f.
* Wind from: 190° Speed 06 kn.
Dewpoint: -04° c.
Visibility: 10 km or more,
No clouds below 1,500 m.
No cumulonimbus, and no significant weather
fenomena in the aerodrome or its vicinity.

EPMO 051430Z 19006KT CAVOK 02/M04 Q1019


Wind From 190°
Speed 06 kn.

 
 
jpsmedia worldairports.se 2019   terms of use